Time;durP1;ratioP1;P1;durP2;ratioP2;P2;SDS_P1;SDS_P2;PMS_P1;PMS_P2;Temp;Humidity;BMP_temperature;BMP_pressure;BME280_temperature;BME280_humidity;BME280_pressure;Samples;Min_cycle;Max_cycle;Signal;HPM_P1;HPM_P2
2022/12/14 00:02:25;;;;;;;33.43;23.73;;;6.90;1.00;;;;;;5002262;28;20030;-63
2022/12/14 00:04:50;;;;;;;32.80;22.87;;;6.80;1.00;;;;;;5013036;28;20431;-64
2022/12/14 00:07:16;;;;;;;33.13;23.67;;;6.90;1.00;;;;;;5008172;28;20453;-64
2022/12/14 00:10:38;;;;;;;35.17;25.17;;;6.90;1.00;;;;;;5008344;28;20125;-64
2022/12/14 00:13:04;;;;;;;38.43;24.63;;;6.70;1.00;;;;;;5004937;28;20076;-64
2022/12/14 00:15:30;;;;;;;32.77;23.73;;;6.80;1.00;;;;;;5013426;28;20084;-64
2022/12/14 00:17:55;;;;;;;36.10;24.50;;;6.60;1.00;;;;;;5013425;28;20487;-63
2022/12/14 00:20:21;;;;;;;32.43;23.97;;;6.70;1.00;;;;;;5010071;28;20018;-63
2022/12/14 00:22:46;;;;;;;34.40;24.23;;;6.80;1.00;;;;;;5012115;28;20483;-63
2022/12/14 00:25:12;;;;;;;35.57;24.40;;;6.90;1.00;;;;;;5013556;28;20495;-64
2022/12/14 00:27:47;;;;;;;32.67;24.23;;;6.90;1.00;;;;;;4996843;28;20018;-63
2022/12/14 00:30:15;;;;;;;34.90;24.10;;;6.90;1.00;;;;;;5013342;28;20018;-63
2022/12/14 00:32:41;;;;;;;35.53;24.00;;;6.90;1.00;;;;;;4994640;28;20058;-62
2022/12/14 00:35:12;;;;;;;38.97;25.10;;;6.90;1.00;;;;;;5012299;28;20034;-62
2022/12/14 00:37:38;;;;;;;32.70;23.80;;;6.90;1.00;;;;;;5013718;28;20050;-63
2022/12/14 00:40:06;;;;;;;35.50;24.37;;;6.90;1.00;;;;;;5007433;28;20073;-63
2022/12/14 00:42:32;;;;;;;34.57;24.77;;;6.90;1.00;;;;;;5010026;28;20029;-64
2022/12/14 00:44:57;;;;;;;34.43;24.20;;;7.00;1.00;;;;;;5011276;28;20038;-64
2022/12/14 00:47:38;;;;;;;33.60;23.07;;;7.00;1.00;;;;;;4994484;28;20026;-63
2022/12/14 00:50:04;;;;;;;35.63;23.60;;;6.90;1.00;;;;;;5007305;28;20179;-63
2022/12/14 00:52:30;;;;;;;33.27;23.30;;;7.00;1.00;;;;;;5012549;28;20030;-64
2022/12/14 00:54:56;;;;;;;31.77;23.50;;;7.00;1.00;;;;;;4976625;28;20040;-64
2022/12/14 00:57:21;;;;;;;34.60;24.67;;;7.00;1.00;;;;;;4994818;28;20034;-63
2022/12/14 00:59:47;;;;;;;32.90;23.97;;;6.90;1.00;;;;;;5012581;28;20030;-63
2022/12/14 01:02:12;;;;;;;34.30;23.73;;;7.00;1.00;;;;;;5011013;28;20057;-64
2022/12/14 01:04:38;;;;;;;32.00;23.93;;;7.00;1.00;;;;;;5012551;28;20422;-64
2022/12/14 01:07:04;;;;;;;34.00;23.73;;;6.90;1.00;;;;;;5013534;28;20065;-64
2022/12/14 01:09:29;;;;;;;33.90;23.60;;;6.90;1.00;;;;;;5010160;28;20072;-64
2022/12/14 01:11:55;;;;;;;33.00;23.33;;;6.80;1.00;;;;;;5012820;28;20379;-63
2022/12/14 01:14:21;;;;;;;32.77;23.70;;;6.90;1.00;;;;;;5011359;28;20491;-63
2022/12/14 01:16:47;;;;;;;34.53;24.53;;;6.80;1.00;;;;;;4995177;28;20030;-63
2022/12/14 01:19:14;;;;;;;35.77;24.70;;;6.80;1.00;;;;;;4993964;28;20038;-63
2022/12/14 01:21:40;;;;;;;36.30;25.27;;;6.90;1.00;;;;;;5010455;28;20026;-63
2022/12/14 01:24:07;;;;;;;34.63;24.13;;;6.90;1.00;;;;;;5010748;28;20033;-62
2022/12/14 01:26:37;;;;;;;35.60;23.17;;;6.90;1.00;;;;;;5011255;28;20463;-62
2022/12/14 01:29:03;;;;;;;36.03;24.07;;;6.90;1.00;;;;;;5009565;28;20159;-64
2022/12/14 01:31:31;;;;;;;35.93;23.73;;;7.00;1.00;;;;;;5011927;28;20104;-63
2022/12/14 01:33:57;;;;;;;33.57;24.83;;;6.90;1.00;;;;;;5011413;28;20044;-64
2022/12/14 01:36:27;;;;;;;35.17;24.20;;;6.90;1.00;;;;;;5011548;28;20060;-64
2022/12/14 01:38:57;;;;;;;36.20;24.57;;;6.90;1.00;;;;;;5013332;28;20486;-64
2022/12/14 01:41:30;;;;;;;34.30;24.37;;;6.80;1.00;;;;;;5012702;28;20464;-64
2022/12/14 01:44:08;;;;;;;39.63;25.53;;;6.90;1.00;;;;;;5012348;28;20026;-64
2022/12/14 01:46:39;;;;;;;39.40;25.57;;;6.90;1.00;;;;;;5005506;28;20034;-64
2022/12/14 01:49:21;;;;;;;36.33;24.73;;;6.90;1.00;;;;;;5013052;28;20093;-64
2022/12/14 01:51:59;;;;;;;34.50;24.47;;;6.90;1.00;;;;;;5010835;28;20034;-64
2022/12/14 01:54:28;;;;;;;35.83;24.30;;;6.60;1.00;;;;;;5006994;28;20184;-64
2022/12/14 01:56:55;;;;;;;35.07;24.23;;;6.80;1.00;;;;;;5010712;28;20396;-64
2022/12/14 01:59:28;;;;;;;36.17;24.47;;;6.70;1.00;;;;;;5011074;28;20042;-64
2022/12/14 02:01:54;;;;;;;29.53;21.17;;;6.90;1.00;;;;;;5004965;28;20041;-63
2022/12/14 02:04:21;;;;;;;31.73;22.10;;;6.80;1.00;;;;;;5010914;28;20096;-64
2022/12/14 02:06:48;;;;;;;33.87;22.37;;;6.80;1.00;;;;;;5010142;28;20109;-64
2022/12/14 02:09:24;;;;;;;27.90;21.07;;;6.80;1.00;;;;;;5011263;28;20495;-64
2022/12/14 02:12:08;;;;;;;31.60;21.97;;;6.80;1.00;;;;;;5009253;28;20034;-63
2022/12/14 02:14:34;;;;;;;32.15;22.73;;;6.90;1.00;;;;;;5009656;28;20077;-64
2022/12/14 02:17:01;;;;;;;30.50;21.47;;;6.90;1.00;;;;;;5008015;28;20468;-64
2022/12/14 02:19:27;;;;;;;30.13;22.33;;;6.80;1.00;;;;;;5012344;28;20069;-64
2022/12/14 02:22:30;;;;;;;30.77;21.20;;;6.60;1.00;;;;;;5011769;28;20037;-63
2022/12/14 02:25:12;;;;;;;31.43;21.53;;;6.60;1.00;;;;;;4999817;28;20506;-64
2022/12/14 02:27:56;;;;;;;31.13;22.77;;;6.80;1.00;;;;;;5010883;28;20018;-64
2022/12/14 02:30:27;;;;;;;32.43;23.13;;;6.70;1.00;;;;;;5011302;28;20033;-64
2022/12/14 02:33:22;;;;;;;33.63;22.57;;;6.80;1.00;;;;;;5011285;28;20033;-63
2022/12/14 02:36:26;;;;;;;31.23;23.87;;;6.80;1.00;;;;;;4988758;28;20441;-64
2022/12/14 02:39:07;;;;;;;38.47;26.10;;;6.90;1.00;;;;;;4987897;28;20316;-63
2022/12/14 02:41:53;;;;;;;38.20;24.33;;;6.90;1.00;;;;;;5008657;28;20100;-64
2022/12/14 02:44:22;;;;;;;38.50;25.93;;;6.90;1.00;;;;;;5004775;28;20506;-64
2022/12/14 02:47:01;;;;;;;36.43;25.30;;;6.80;1.00;;;;;;5010931;28;20384;-64
2022/12/14 02:49:39;;;;;;;37.63;26.17;;;6.80;1.00;;;;;;5010388;28;20080;-63
2022/12/14 02:52:31;;;;;;;39.03;26.10;;;6.70;1.00;;;;;;5010332;28;20022;-64
2022/12/14 02:55:04;;;;;;;36.77;25.13;;;6.80;1.00;;;;;;5010126;28;20503;-63
2022/12/14 02:57:51;;;;;;;37.13;25.90;;;6.80;1.00;;;;;;5010088;28;20500;-64
2022/12/14 03:00:17;;;;;;;37.17;24.43;;;6.90;1.00;;;;;;5009701;28;20034;-64
2022/12/14 03:02:44;;;;;;;34.50;22.53;;;6.90;1.00;;;;;;5007440;28;20033;-63
2022/12/14 03:05:10;;;;;;;33.10;22.00;;;6.60;1.00;;;;;;5007088;28;20054;-63
2022/12/14 03:11:01;;;;;;;33.67;22.23;;;6.80;1.00;;;;;;4997916;28;20054;-64
2022/12/14 03:13:36;;;;;;;35.67;23.93;;;6.70;1.00;;;;;;4991249;28;20053;-64
2022/12/14 03:16:12;;;;;;;32.23;22.60;;;6.70;1.00;;;;;;5010072;28;20108;-64
2022/12/14 03:18:48;;;;;;;32.93;22.20;;;6.80;1.00;;;;;;4992998;28;20042;-63
2022/12/14 03:21:19;;;;;;;29.60;21.67;;;6.80;1.00;;;;;;5011225;28;20030;-64
2022/12/14 03:23:49;;;;;;;30.07;20.47;;;6.80;1.00;;;;;;4990547;28;20026;-64
2022/12/14 03:26:22;;;;;;;32.13;22.77;;;6.90;1.00;;;;;;5011099;28;20489;-63
2022/12/14 03:28:56;;;;;;;31.33;22.23;;;6.80;1.00;;;;;;5010347;28;20049;-64
2022/12/14 03:31:45;;;;;;;29.77;22.10;;;6.80;1.00;;;;;;5010299;28;20476;-64
2022/12/14 03:34:14;;;;;;;32.17;22.97;;;6.60;1.00;;;;;;5010450;28;20104;-64
2022/12/14 03:36:48;;;;;;;31.73;21.27;;;6.60;1.00;;;;;;5013563;28;20480;-64
2022/12/14 03:39:29;;;;;;;33.80;22.13;;;6.80;1.00;;;;;;5014675;28;20451;-63
2022/12/14 03:42:10;;;;;;;30.60;22.43;;;6.70;1.00;;;;;;5007136;28;20057;-63
2022/12/14 03:44:35;;;;;;;31.33;21.90;;;6.80;1.00;;;;;;5012917;28;20104;-64
2022/12/14 03:47:01;;;;;;;29.00;21.17;;;6.70;1.00;;;;;;5014862;28;20029;-63
2022/12/14 03:49:52;;;;;;;29.60;20.40;;;6.70;1.00;;;;;;5013915;28;20029;-63
2022/12/14 03:52:26;;;;;;;32.33;21.83;;;6.70;1.00;;;;;;5013886;28;20034;-63
2022/12/14 03:55:23;;;;;;;33.58;23.20;;;6.80;1.00;;;;;;5013085;28;20034;-63
2022/12/14 03:58:07;;;;;;;32.77;21.87;;;6.70;1.00;;;;;;5013022;28;20140;-64
2022/12/14 04:00:44;;;;;;;31.90;21.63;;;6.80;1.00;;;;;;4974817;28;20076;-64
2022/12/14 04:03:21;;;;;;;34.03;24.40;;;6.70;1.00;;;;;;4981302;28;20368;-64
2022/12/14 04:06:18;;;;;;;36.90;26.00;;;6.70;1.00;;;;;;4999984;28;20041;-63
2022/12/14 04:08:50;;;;;;;35.73;26.57;;;6.70;1.00;;;;;;4976923;28;20026;-63
2022/12/14 04:19:54;;;;;;;36.80;26.70;;;6.40;1.00;;;;;;4993083;28;20094;-63
2022/12/14 04:22:27;;;;;;;38.00;28.10;;;6.50;1.00;;;;;;4982642;28;20049;-63
2022/12/14 04:27:53;;;;;;;41.90;29.07;;;6.40;1.00;;;;;;4991330;28;20128;-63
2022/12/14 04:30:19;;;;;;;31.50;21.70;;;6.20;1.00;;;;;;5000479;28;20038;-63
2022/12/14 04:32:51;;;;;;;42.23;29.53;;;6.20;1.00;;;;;;4988104;28;20038;-63
2022/12/14 04:35:25;;;;;;;38.07;28.07;;;6.30;1.00;;;;;;5008689;28;20034;-63
2022/12/14 04:37:59;;;;;;;39.40;29.03;;;6.40;1.00;;;;;;5002098;28;20136;-63
2022/12/14 04:40:32;;;;;;;44.38;31.23;;;6.10;1.00;;;;;;5004128;28;20073;-63
2022/12/14 04:43:05;;;;;;;41.30;29.70;;;6.10;1.00;;;;;;4993052;28;20057;-63
2022/12/14 04:45:42;;;;;;;39.70;29.10;;;6.10;1.00;;;;;;4992540;28;20022;-63
2022/12/14 04:48:25;;;;;;;39.80;28.53;;;6.10;1.00;;;;;;4992860;28;20045;-63
2022/12/14 04:51:02;;;;;;;41.60;29.63;;;6.10;1.00;;;;;;4988848;28;20040;-63
2022/12/14 04:53:30;;;;;;;42.30;28.77;;;6.00;1.00;;;;;;4974645;28;20081;-64
2022/12/14 04:56:08;;;;;;;45.80;29.67;;;6.00;1.00;;;;;;4996807;28;20434;-63
2022/12/14 04:58:35;;;;;;;39.70;28.90;;;6.10;1.00;;;;;;4973861;28;20060;-63
2022/12/14 05:01:25;;;;;;;42.00;29.83;;;6.30;1.00;;;;;;4992994;28;20045;-62
2022/12/14 05:04:15;;;;;;;42.07;28.93;;;6.30;1.00;;;;;;4993099;28;20113;-63
2022/12/14 05:07:03;;;;;;;40.27;28.37;;;6.30;1.00;;;;;;5001239;28;20023;-63
2022/12/14 05:09:37;;;;;;;42.63;29.60;;;6.30;1.00;;;;;;4994510;28;20022;-63
2022/12/14 05:12:21;;;;;;;41.55;29.85;;;6.10;1.00;;;;;;4998017;28;20388;-63
2022/12/14 05:15:10;;;;;;;44.67;30.90;;;6.10;1.00;;;;;;4976624;28;20477;-62
2022/12/14 05:17:37;;;;;;;45.80;30.23;;;6.10;1.00;;;;;;4989997;28;20480;-62
2022/12/14 05:20:04;;;;;;;43.27;30.43;;;6.20;1.00;;;;;;5005003;28;20034;-63
2022/12/14 05:22:29;;;;;;;45.47;30.27;;;6.20;1.00;;;;;;5006375;28;20053;-62
2022/12/14 05:24:55;;;;;;;43.77;29.47;;;6.20;1.00;;;;;;4991900;28;20034;-62
2022/12/14 05:27:20;;;;;;;39.73;28.63;;;6.30;1.00;;;;;;5004741;28;20436;-62
2022/12/14 05:29:46;;;;;;;40.47;29.13;;;6.30;1.00;;;;;;4996380;28;20037;-63
2022/12/14 05:32:12;;;;;;;42.30;29.67;;;5.90;1.00;;;;;;5002286;28;20022;-63
2022/12/14 05:34:38;;;;;;;46.47;29.83;;;6.00;1.00;;;;;;4992826;28;20082;-63
2022/12/14 05:37:04;;;;;;;38.43;28.30;;;6.20;1.00;;;;;;4993275;28;20107;-63
2022/12/14 05:39:29;;;;;;;42.17;29.10;;;6.30;1.00;;;;;;5005872;28;20387;-63
2022/12/14 05:41:55;;;;;;;39.37;28.13;;;6.30;1.00;;;;;;4999040;28;20042;-63
2022/12/14 05:44:21;;;;;;;41.57;29.40;;;6.20;1.00;;;;;;4984531;28;20045;-63
2022/12/14 05:46:47;;;;;;;41.63;27.70;;;6.20;1.00;;;;;;4995305;28;20472;-63
2022/12/14 05:49:12;;;;;;;40.73;28.40;;;6.30;1.00;;;;;;5013029;28;20030;-63
2022/12/14 05:51:38;;;;;;;41.37;28.27;;;6.20;1.00;;;;;;4998805;28;20034;-63
2022/12/14 05:54:04;;;;;;;43.27;28.77;;;6.30;1.00;;;;;;4967589;28;20034;-63
2022/12/14 05:56:30;;;;;;;45.03;30.03;;;6.30;1.00;;;;;;4994115;28;20507;-63
2022/12/14 05:58:56;;;;;;;39.77;27.50;;;6.30;1.00;;;;;;4993235;28;20169;-63
2022/12/14 06:01:22;;;;;;;41.23;29.63;;;6.40;1.00;;;;;;4973583;28;20128;-63
2022/12/14 06:03:51;;;;;;;46.60;27.63;;;6.40;1.00;;;;;;4997316;28;20489;-63
2022/12/14 06:06:16;;;;;;;35.40;26.47;;;6.30;1.00;;;;;;5003345;28;20030;-63
2022/12/14 06:08:44;;;;;;;42.63;27.23;;;6.30;1.00;;;;;;4993567;28;20405;-63
2022/12/14 06:11:21;;;;;;;37.13;27.37;;;6.40;1.00;;;;;;4998927;28;20153;-63
2022/12/14 06:13:47;;;;;;;38.40;27.50;;;6.40;1.00;;;;;;4999502;28;20050;-63
2022/12/14 06:16:18;;;;;;;45.47;29.67;;;6.40;1.00;;;;;;5002981;28;20026;-63
2022/12/14 06:18:52;;;;;;;40.53;28.27;;;6.40;1.00;;;;;;4990912;28;20034;-63
2022/12/14 06:21:21;;;;;;;39.75;28.00;;;6.40;1.00;;;;;;4990248;28;20025;-63
2022/12/14 06:23:46;;;;;;;43.23;28.83;;;6.30;1.00;;;;;;4995781;28;20026;-64
2022/12/14 06:26:13;;;;;;;38.47;27.83;;;6.30;1.00;;;;;;5006750;28;21011;-63
2022/12/14 06:28:39;;;;;;;44.50;30.50;;;6.10;1.00;;;;;;4997647;28;20027;-63
2022/12/14 06:31:05;;;;;;;45.20;29.87;;;6.30;1.00;;;;;;4992601;28;20318;-63
2022/12/14 06:33:33;;;;;;;42.37;29.83;;;6.30;1.00;;;;;;4990080;28;20113;-63
2022/12/14 06:36:00;;;;;;;43.17;28.83;;;6.30;1.00;;;;;;4995915;28;20117;-63
2022/12/14 06:38:26;;;;;;;41.63;29.70;;;6.40;1.00;;;;;;4986123;28;20511;-63
2022/12/14 06:40:52;;;;;;;42.67;28.60;;;6.30;1.00;;;;;;4990710;28;20034;-63
2022/12/14 06:43:17;;;;;;;43.47;29.53;;;6.40;1.00;;;;;;4978459;28;21021;-63
2022/12/14 06:45:43;;;;;;;37.63;27.63;;;6.30;1.00;;;;;;4991386;28;20069;-63
2022/12/14 06:48:09;;;;;;;42.17;28.03;;;6.30;1.00;;;;;;4996829;28;20477;-63
2022/12/14 06:50:34;;;;;;;43.73;28.63;;;6.30;1.00;;;;;;4986105;28;20091;-64
2022/12/14 06:53:00;;;;;;;44.20;29.57;;;6.20;1.00;;;;;;4962824;28;20089;-63
2022/12/14 06:55:26;;;;;;;40.17;28.13;;;6.10;1.00;;;;;;4991272;28;20050;-63
2022/12/14 06:57:53;;;;;;;41.33;29.83;;;6.10;1.00;;;;;;5006717;28;20092;-63
2022/12/14 07:00:21;;;;;;;43.60;28.90;;;6.10;1.00;;;;;;4998231;28;20033;-63
2022/12/14 07:02:47;;;;;;;45.33;30.17;;;6.30;1.00;;;;;;5006204;28;20121;-63
2022/12/14 07:05:13;;;;;;;44.53;29.80;;;6.30;1.00;;;;;;5010370;28;20602;-63
2022/12/14 07:07:39;;;;;;;43.43;28.93;;;6.20;1.00;;;;;;5012259;28;20078;-63
2022/12/14 07:10:05;;;;;;;41.37;27.73;;;6.20;1.00;;;;;;5011397;28;20424;-64
2022/12/14 07:12:31;;;;;;;41.67;27.97;;;6.10;1.00;;;;;;5012214;28;20121;-63
2022/12/14 07:14:57;;;;;;;41.53;29.40;;;6.10;1.00;;;;;;5007866;28;20100;-64
2022/12/14 07:17:23;;;;;;;42.47;28.47;;;6.10;1.00;;;;;;5015571;28;20026;-63
2022/12/14 07:19:48;;;;;;;41.83;27.73;;;6.20;1.00;;;;;;5010040;28;20817;-64
2022/12/14 07:22:14;;;;;;;39.93;27.30;;;6.20;1.00;;;;;;4993676;28;20030;-63
2022/12/14 07:24:40;;;;;;;42.20;27.60;;;6.30;1.00;;;;;;4997731;28;20113;-64
2022/12/14 07:27:06;;;;;;;39.93;25.97;;;6.30;1.00;;;;;;5015224;28;20045;-63
2022/12/14 07:29:32;;;;;;;35.23;24.90;;;6.40;1.00;;;;;;5015402;28;20100;-64
2022/12/14 07:31:58;;;;;;;41.17;26.57;;;6.10;1.00;;;;;;5017147;28;20040;-63
2022/12/14 07:34:24;;;;;;;35.07;24.87;;;6.20;1.00;;;;;;5014253;28;20033;-63
2022/12/14 07:36:51;;;;;;;38.37;26.50;;;6.20;1.00;;;;;;5014237;28;20053;-63
2022/12/14 07:39:29;;;;;;;35.50;24.20;;;6.10;1.00;;;;;;5010497;28;20046;-64
2022/12/14 07:41:55;;;;;;;37.33;24.90;;;6.30;1.00;;;;;;4999740;28;20034;-63
2022/12/14 07:44:20;;;;;;;46.77;26.83;;;6.40;1.00;;;;;;4990137;28;20368;-64
2022/12/14 07:46:46;;;;;;;36.43;24.47;;;6.40;1.00;;;;;;5014103;28;20022;-63
2022/12/14 07:49:12;;;;;;;37.83;24.43;;;6.40;1.00;;;;;;4995996;28;20064;-64
2022/12/14 07:51:43;;;;;;;39.63;24.60;;;6.30;1.00;;;;;;5014581;28;20053;-64
2022/12/14 07:54:10;;;;;;;36.97;24.57;;;6.40;1.00;;;;;;5015071;28;20097;-64
2022/12/14 07:56:39;;;;;;;36.50;26.13;;;6.30;1.00;;;;;;5012122;28;20088;-64
2022/12/14 07:59:07;;;;;;;37.17;24.43;;;6.40;1.00;;;;;;5013732;28;20156;-63
2022/12/14 08:01:34;;;;;;;36.47;24.77;;;6.50;1.00;;;;;;5013921;28;20022;-64
2022/12/14 08:04:12;;;;;;;45.77;28.43;;;6.30;1.00;;;;;;5013424;28;20028;-64
2022/12/14 08:06:39;;;;;;;45.27;29.93;;;6.30;1.00;;;;;;5014300;28;20128;-64
2022/12/14 08:09:06;;;;;;;43.77;28.30;;;6.30;1.00;;;;;;4996188;28;20049;-63
2022/12/14 08:11:32;;;;;;;40.47;27.27;;;6.40;1.00;;;;;;5013940;28;20034;-64
2022/12/14 08:14:00;;;;;;;48.17;30.37;;;6.00;1.00;;;;;;5014341;28;20029;-63
2022/12/14 08:16:26;;;;;;;43.73;28.93;;;6.20;1.00;;;;;;5013051;28;20550;-64
2022/12/14 08:18:54;;;;;;;41.50;28.30;;;6.30;1.00;;;;;;5012994;28;20037;-64
2022/12/14 08:21:21;;;;;;;45.13;29.70;;;6.40;1.00;;;;;;5022388;28;20022;-64
2022/12/14 08:23:47;;;;;;;40.27;28.20;;;6.50;1.00;;;;;;5014736;28;20049;-64
2022/12/14 08:26:14;;;;;;;42.20;28.60;;;6.40;1.00;;;;;;5014447;28;20046;-64
2022/12/14 08:28:39;;;;;;;48.30;30.63;;;6.50;1.00;;;;;;4996759;28;20072;-64
2022/12/14 08:31:10;;;;;;;41.87;28.57;;;6.60;1.00;;;;;;5013975;28;20053;-64
2022/12/14 08:33:37;;;;;;;43.80;28.73;;;6.50;1.00;;;;;;5014278;28;20030;-64
2022/12/14 08:36:14;;;;;;;43.67;28.53;;;6.40;1.00;;;;;;5014095;28;20531;-65
2022/12/14 08:38:40;;;;;;;43.20;28.67;;;6.50;1.00;;;;;;5014565;28;20386;-64
2022/12/14 08:41:11;;;;;;;42.73;28.13;;;6.70;1.00;;;;;;5014131;28;20026;-63
2022/12/14 08:43:37;;;;;;;47.60;29.90;;;6.70;1.00;;;;;;5014332;28;20116;-63
2022/12/14 08:46:04;;;;;;;46.53;28.87;;;6.70;1.00;;;;;;5013706;28;20026;-64
2022/12/14 08:48:29;;;;;;;43.30;29.97;;;6.70;1.00;;;;;;5014103;28;20555;-63
2022/12/14 08:51:04;;;;;;;44.13;29.50;;;6.80;1.00;;;;;;5008411;28;20030;-63
2022/12/14 08:53:30;;;;;;;48.85;27.98;;;6.70;1.00;;;;;;5014314;28;20033;-63
2022/12/14 08:55:56;;;;;;;43.17;28.93;;;6.40;1.00;;;;;;4996298;28;20033;-63
2022/12/14 08:58:21;;;;;;;47.97;30.40;;;6.60;1.00;;;;;;5013653;28;20090;-63
2022/12/14 09:00:47;;;;;;;43.87;27.67;;;6.60;1.00;;;;;;5013567;28;20032;-64
2022/12/14 09:03:28;;;;;;;58.73;30.97;;;6.80;1.00;;;;;;5013193;28;20045;-63
2022/12/14 09:05:54;;;;;;;47.07;30.07;;;6.70;1.00;;;;;;5012403;28;20116;-64
2022/12/14 09:08:20;;;;;;;46.60;29.77;;;6.70;1.00;;;;;;5005666;28;20161;-63
2022/12/14 09:10:50;;;;;;;42.03;27.13;;;6.70;1.00;;;;;;5013366;28;20030;-63
2022/12/14 09:13:17;;;;;;;40.07;27.57;;;6.50;1.00;;;;;;5013625;28;20416;-64
2022/12/14 09:15:42;;;;;;;43.33;28.83;;;6.60;1.00;;;;;;5013153;28;20030;-63
2022/12/14 09:18:08;;;;;;;45.20;30.50;;;6.70;1.00;;;;;;5013360;28;20091;-63
2022/12/14 09:20:34;;;;;;;47.30;31.40;;;6.90;1.00;;;;;;5013311;28;20026;-64
2022/12/14 09:23:00;;;;;;;44.37;30.33;;;7.00;1.00;;;;;;5013146;28;20040;-64
2022/12/14 09:25:25;;;;;;;51.10;32.13;;;7.10;1.00;;;;;;5013199;28;20361;-63
2022/12/14 09:27:51;;;;;;;45.63;28.63;;;7.20;1.00;;;;;;5013142;28;20030;-61
2022/12/14 09:30:17;;;;;;;46.50;29.70;;;6.70;1.00;;;;;;5012985;28;20057;-65
2022/12/14 09:32:45;;;;;;;46.80;31.23;;;6.80;1.00;;;;;;5004799;28;20057;-64
2022/12/14 09:35:11;;;;;;;48.33;30.73;;;7.20;1.00;;;;;;5013030;28;20033;-64
2022/12/14 09:37:37;;;;;;;44.80;27.77;;;7.40;1.00;;;;;;5012814;28;20046;-64
2022/12/14 09:40:04;;;;;;;44.10;29.50;;;7.40;1.00;;;;;;5013065;28;20072;-64
2022/12/14 09:42:32;;;;;;;43.33;27.87;;;7.20;1.00;;;;;;5012954;28;20060;-64
2022/12/14 09:45:16;;;;;;;43.67;29.27;;;7.30;1.00;;;;;;5013086;28;20495;-64
2022/12/14 09:47:47;;;;;;;46.03;28.60;;;7.50;1.00;;;;;;5005376;28;20046;-64
2022/12/14 09:50:21;;;;;;;43.50;29.20;;;7.60;1.00;;;;;;4999558;28;20026;-61
2022/12/14 09:52:54;;;;;;;41.15;28.30;;;7.30;1.00;;;;;;5011580;28;20395;-61
2022/12/14 09:55:41;;;;;;;40.63;27.33;;;7.40;1.00;;;;;;5010918;28;20435;-63
2022/12/14 09:58:28;;;;;;;43.00;26.90;;;7.40;1.00;;;;;;4992756;28;20049;-63
2022/12/14 10:01:21;;;;;;;44.87;26.93;;;7.30;1.00;;;;;;5011925;28;20036;-63
2022/12/14 10:04:11;;;;;;;42.87;29.43;;;7.30;1.00;;;;;;5009999;28;20026;-63
2022/12/14 10:07:03;;;;;;;43.43;29.40;;;7.60;1.00;;;;;;5060507;28;20496;-63
2022/12/14 10:09:35;;;;;;;43.60;29.27;;;7.60;1.00;;;;;;5040516;28;20167;-63
2022/12/14 10:12:37;;;;;;;46.00;30.03;;;7.40;1.00;;;;;;5049505;28;20017;-63
2022/12/14 10:15:26;;;;;;;37.37;25.27;;;7.70;1.00;;;;;;5049370;28;20033;-63
2022/12/14 10:17:58;;;;;;;37.00;25.73;;;7.40;1.00;;;;;;5043380;28;20098;-63
2022/12/14 10:20:30;;;;;;;39.67;26.67;;;7.50;1.00;;;;;;5048773;28;20386;-63
2022/12/14 10:22:57;;;;;;;39.80;27.10;;;7.40;1.00;;;;;;5058956;28;20036;-63
2022/12/14 10:25:28;;;;;;;34.67;24.07;;;7.70;1.00;;;;;;5053953;28;20045;-63
2022/12/14 10:27:56;;;;;;;42.43;26.90;;;7.70;1.00;;;;;;5042390;28;20100;-63
2022/12/14 10:30:22;;;;;;;38.20;25.80;;;7.90;1.00;;;;;;5054423;28;20037;-63
2022/12/14 10:32:59;;;;;;;32.90;21.23;;;7.80;1.00;;;;;;5048762;28;20074;-63
2022/12/14 10:35:37;;;;;;;34.00;23.60;;;7.50;1.00;;;;;;5048901;28;20029;-63
2022/12/14 10:38:45;;;;;;;30.30;21.90;;;7.70;1.00;;;;;;5042083;28;20026;-63
2022/12/14 10:41:20;;;;;;;30.70;22.17;;;7.70;1.00;;;;;;5039099;28;20079;-63
2022/12/14 10:43:48;;;;;;;;;;;7.70;1.00;;;;;;5056838;28;20033;-63
2022/12/14 10:46:36;;;;;;;37.30;24.73;;;7.60;1.00;;;;;;5049519;28;19920;-63
2022/12/14 10:49:14;;;;;;;36.03;24.50;;;7.70;1.00;;;;;;5037672;28;20041;-63
2022/12/14 10:51:41;;;;;;;37.97;25.60;;;7.80;1.00;;;;;;5037156;28;20040;-63
2022/12/14 10:54:06;;;;;;;43.60;28.97;;;7.90;1.00;;;;;;5048501;28;20105;-63
2022/12/14 10:56:34;;;;;;;39.97;27.53;;;7.80;1.00;;;;;;5044961;28;20098;-63
2022/12/14 10:59:33;;;;;;;40.90;27.47;;;7.90;1.00;;;;;;5051730;28;20051;-63
2022/12/14 11:02:18;;;;;;;42.40;26.60;;;7.70;1.00;;;;;;5040543;28;20041;-63
2022/12/14 11:04:50;;;;;;;;;;;7.70;1.00;;;;;;5044737;28;20494;-63
2022/12/14 11:07:20;;;;;;;42.43;27.23;;;7.80;1.00;;;;;;5050576;28;19913;-63
2022/12/14 11:09:46;;;;;;;39.27;27.33;;;7.80;1.00;;;;;;5052485;28;20067;-63
2022/12/14 11:12:12;;;;;;;44.23;29.33;;;7.80;1.00;;;;;;5055037;28;20052;-62
2022/12/14 11:14:49;;;;;;;45.60;29.77;;;7.90;1.00;;;;;;5049541;28;20028;-62
2022/12/14 11:17:36;;;;;;;38.00;27.07;;;8.10;1.00;;;;;;5038908;28;20039;-62
2022/12/14 11:20:08;;;;;;;39.00;25.60;;;7.90;1.00;;;;;;5031452;28;20083;-62
2022/12/14 11:22:53;;;;;;;42.17;27.43;;;8.00;1.00;;;;;;5038775;28;20055;-62
2022/12/14 11:25:37;;;;;;;41.17;26.37;;;7.80;1.00;;;;;;5036225;28;20037;-62
2022/12/14 11:28:38;;;;;;;37.17;26.43;;;8.00;1.00;;;;;;5024357;28;20026;-63
2022/12/14 11:31:28;;;;;;;40.03;27.43;;;7.70;1.00;;;;;;5030174;28;20029;-63
2022/12/14 11:33:56;;;;;;;42.03;26.80;;;7.90;1.00;;;;;;5035761;28;20485;-63
2022/12/14 11:36:22;;;;;;;39.73;27.97;;;7.90;1.00;;;;;;5034255;28;20068;-63
2022/12/14 11:38:54;;;;;;;38.50;26.70;;;7.80;1.00;;;;;;5038681;28;20060;-62
2022/12/14 11:41:20;;;;;;;46.70;27.90;;;8.00;1.00;;;;;;5033010;28;20402;-62
2022/12/14 11:44:04;;;;;;;36.23;26.93;;;8.00;1.00;;;;;;5040081;28;20098;-62
2022/12/14 11:46:57;;;;;;;39.40;27.93;;;8.20;1.00;;;;;;5036992;28;20092;-62
2022/12/14 11:49:41;;;;;;;41.37;28.37;;;8.10;1.00;;;;;;5038299;28;20036;-63
2022/12/14 11:52:12;;;;;;;39.97;27.27;;;8.10;1.00;;;;;;5031212;28;20153;-62
2022/12/14 11:54:44;;;;;;;36.77;26.00;;;8.30;1.00;;;;;;5040609;28;20105;-62
2022/12/14 11:57:12;;;;;;;40.43;28.50;;;8.30;1.00;;;;;;5028346;28;20037;-62
2022/12/14 11:59:44;;;;;;;44.77;29.87;;;8.30;1.00;;;;;;5040718;28;20030;-63
2022/12/14 12:02:32;;;;;;;44.23;27.40;;;8.20;1.00;;;;;;5029505;28;20021;-63
2022/12/14 12:08:43;;;;;;;37.97;28.73;;;8.40;1.00;;;;;;5029026;28;20071;-63
2022/12/14 12:11:18;;;;;;;40.63;26.83;;;8.50;1.00;;;;;;5032671;28;20025;-63
2022/12/14 12:13:46;;;;;;;40.63;26.60;;;8.40;1.00;;;;;;5037236;28;20397;-64
2022/12/14 12:16:21;;;;;;;42.30;27.93;;;8.60;1.00;;;;;;5030848;28;20897;-63
2022/12/14 12:18:49;;;;;;;;;;;8.60;1.00;;;;;;5036658;28;20030;-63
2022/12/14 12:21:19;;;;;;;33.53;25.37;;;8.50;1.00;;;;;;5032046;28;20358;-63
2022/12/14 12:24:05;;;;;;;39.07;27.37;;;8.60;1.00;;;;;;5038462;28;20038;-63
2022/12/14 12:26:48;;;;;;;35.47;25.37;;;8.70;1.00;;;;;;5021978;28;20376;-63
2022/12/14 12:29:33;;;;;;;39.63;27.20;;;8.80;1.00;;;;;;5034241;28;20037;-63
2022/12/14 12:35:48;;;;;;;36.03;25.67;;;8.70;1.00;;;;;;5022097;28;20056;-63
2022/12/14 12:38:36;;;;;;;35.83;25.33;;;8.60;1.00;;;;;;5034304;28;20078;-63
2022/12/14 12:41:21;;;;;;;37.60;27.07;;;8.70;1.00;;;;;;5028563;28;20080;-63
2022/12/14 12:44:00;;;;;;;37.30;26.70;;;8.50;1.00;;;;;;5025060;28;20067;-63
2022/12/14 12:46:32;;;;;;;43.13;29.30;;;8.50;1.00;;;;;;5048107;28;20046;-63
2022/12/14 12:49:04;;;;;;;39.27;27.90;;;8.60;1.00;;;;;;5043911;28;20537;-63
2022/12/14 12:51:42;;;;;;;42.57;28.47;;;8.70;1.00;;;;;;5026929;28;20556;-63
2022/12/14 12:54:14;;;;;;;44.07;29.17;;;8.60;1.00;;;;;;5037206;28;20022;-63
2022/12/14 12:56:47;;;;;;;45.80;29.83;;;8.60;1.00;;;;;;5033166;28;20026;-64
2022/12/14 12:59:24;;;;;;;40.77;27.70;;;8.60;1.00;;;;;;5032691;28;20044;-63
2022/12/14 13:01:57;;;;;;;42.50;28.97;;;8.70;1.00;;;;;;5033834;28;20072;-63
2022/12/14 13:04:32;;;;;;;44.93;28.87;;;8.50;1.00;;;;;;5031386;28;20040;-63
2022/12/14 13:07:36;;;;;;;40.22;26.88;;;8.60;1.00;;;;;;5028287;28;20611;-63
2022/12/14 13:10:12;;;;;;;40.63;27.47;;;8.50;1.00;;;;;;5005925;28;20034;-64
2022/12/14 13:13:12;;;;;;;35.80;26.23;;;8.60;1.00;;;;;;5030921;28;20076;-64
2022/12/14 13:15:48;;;;;;;36.90;25.43;;;8.50;1.00;;;;;;5031419;28;20037;-64
2022/12/14 13:18:23;;;;;;;37.90;26.77;;;8.50;1.00;;;;;;5034473;28;20033;-63
2022/12/14 13:20:50;;;;;;;41.13;26.93;;;8.60;1.00;;;;;;5042779;28;20034;-63
2022/12/14 13:23:17;;;;;;;38.90;27.13;;;8.60;1.00;;;;;;5035820;28;20032;-65
2022/12/14 13:25:48;;;;;;;37.50;26.47;;;8.60;1.00;;;;;;5041138;28;20037;-64
2022/12/14 13:28:44;;;;;;;41.23;26.30;;;8.40;1.00;;;;;;5037042;28;20028;-64
2022/12/14 13:31:19;;;;;;;40.73;26.53;;;8.50;1.00;;;;;;5035556;28;20111;-64
2022/12/14 13:33:51;;;;;;;36.75;25.70;;;8.50;1.00;;;;;;5040344;28;20116;-64
2022/12/14 13:36:28;;;;;;;39.20;27.53;;;8.40;1.00;;;;;;5038420;28;20029;-64
2022/12/14 13:39:06;;;;;;;39.90;27.40;;;8.30;1.00;;;;;;5031754;28;20084;-64